Time;durP1;ratioP1;P1;durP2;ratioP2;P2;SDS_P1;SDS_P2;PMS_P1;PMS_P2;Temp;Humidity;BMP_temperature;BMP_pressure;BME280_temperature;BME280_humidity;BME280_pressure;Samples;Min_cycle;Max_cycle;Signal;HPM_P1;HPM_P2
2021/07/19 00:00:22;;;;;;;6.13;4.82;;;23.90;99.90;;;;;;4971380;28;20119;-83
2021/07/19 00:02:49;;;;;;;10.23;4.43;;;23.90;99.90;;;;;;4973715;28;20054;-84
2021/07/19 00:05:16;;;;;;;10.00;4.63;;;23.80;99.90;;;;;;4972786;28;20451;-83
2021/07/19 00:07:42;;;;;;;5.97;4.78;;;23.80;99.90;;;;;;4971879;28;20034;-83
2021/07/19 00:10:10;;;;;;;7.18;4.70;;;23.90;99.90;;;;;;4973446;28;20031;-84
2021/07/19 00:12:36;;;;;;;11.45;4.88;;;23.90;99.90;;;;;;4971143;28;20035;-84
2021/07/19 00:15:05;;;;;;;7.20;4.72;;;24.00;99.90;;;;;;4971660;28;20105;-85
2021/07/19 00:17:34;;;;;;;4.53;3.83;;;24.10;99.90;;;;;;4964363;28;20031;-82
2021/07/19 00:19:59;;;;;;;11.63;4.03;;;24.10;99.90;;;;;;4964072;28;20031;-83
2021/07/19 00:22:25;;;;;;;7.65;4.60;;;24.10;99.90;;;;;;4971336;28;20034;-84
2021/07/19 00:24:51;;;;;;;6.60;3.95;;;24.10;99.90;;;;;;4973237;28;20377;-83
2021/07/19 00:27:16;;;;;;;9.98;4.55;;;24.10;99.90;;;;;;4971235;28;20042;-83
2021/07/19 00:29:42;;;;;;;6.00;4.50;;;24.10;99.90;;;;;;4971057;28;20030;-83
2021/07/19 00:32:08;;;;;;;11.57;4.63;;;24.10;99.90;;;;;;4972418;28;20718;-83
2021/07/19 00:34:35;;;;;;;6.68;4.15;;;24.20;99.90;;;;;;4972121;28;20035;-82
2021/07/19 00:37:01;;;;;;;9.93;4.13;;;24.20;99.90;;;;;;4962890;28;20035;-84
2021/07/19 00:39:27;;;;;;;6.38;4.28;;;24.20;99.90;;;;;;4973778;28;20439;-79
2021/07/19 00:41:53;;;;;;;6.57;4.30;;;24.20;99.90;;;;;;4973660;28;20058;-84
2021/07/19 00:44:20;;;;;;;8.25;4.05;;;24.20;99.90;;;;;;4975213;28;20054;-82
2021/07/19 00:46:51;;;;;;;6.07;4.40;;;24.20;99.90;;;;;;4967080;28;20042;-81
2021/07/19 00:49:17;;;;;;;6.18;3.72;;;24.20;99.90;;;;;;4962944;28;21115;-83
2021/07/19 00:51:43;;;;;;;5.57;3.65;;;24.20;99.90;;;;;;4975139;28;20026;-82
2021/07/19 00:54:10;;;;;;;8.80;3.85;;;24.20;99.90;;;;;;4975224;28;20031;-83
2021/07/19 00:56:38;;;;;;;7.05;3.92;;;24.20;99.90;;;;;;4974501;28;20031;-84
2021/07/19 00:59:06;;;;;;;4.90;3.33;;;24.30;99.90;;;;;;4975395;28;20125;-85
2021/07/19 01:01:33;;;;;;;9.40;4.10;;;24.30;99.90;;;;;;4974608;28;20476;-84
2021/07/19 01:04:01;;;;;;;5.63;3.70;;;24.30;99.90;;;;;;4975601;28;20109;-81
2021/07/19 01:06:30;;;;;;;8.77;3.47;;;24.40;99.90;;;;;;4975120;28;20495;-82
2021/07/19 01:08:57;;;;;;;4.43;3.95;;;24.40;99.90;;;;;;4975444;28;20082;-83
2021/07/19 01:11:23;;;;;;;7.50;4.35;;;24.40;99.90;;;;;;4966834;28;20043;-84
2021/07/19 01:13:49;;;;;;;10.90;4.40;;;24.50;99.90;;;;;;4975417;28;20118;-82
2021/07/19 01:16:18;;;;;;;4.80;3.58;;;24.40;99.90;;;;;;4964960;28;20023;-83
2021/07/19 01:18:44;;;;;;;5.93;4.07;;;24.50;99.90;;;;;;4966979;28;20047;-85
2021/07/19 01:21:27;;;;;;;3.92;3.53;;;24.40;99.90;;;;;;4974269;28;20030;-83
2021/07/19 01:24:13;;;;;;;6.43;3.60;;;24.50;99.90;;;;;;4956841;28;20026;-84
2021/07/19 01:26:42;;;;;;;6.18;3.80;;;24.40;99.90;;;;;;4964689;28;20380;-83
2021/07/19 01:29:09;;;;;;;6.78;4.03;;;24.40;99.90;;;;;;4965011;28;20035;-83
2021/07/19 01:31:41;;;;;;;6.68;4.53;;;24.30;99.90;;;;;;4973547;28;20038;-84
2021/07/19 01:34:09;;;;;;;6.20;3.75;;;24.30;99.90;;;;;;4975321;28;20031;-84
2021/07/19 01:36:45;;;;;;;8.45;4.18;;;24.20;99.90;;;;;;4961903;28;20093;-81
2021/07/19 01:39:11;;;;;;;7.07;3.45;;;24.10;99.90;;;;;;4975081;28;20094;-83
2021/07/19 01:41:38;;;;;;;7.30;4.03;;;24.10;99.90;;;;;;4972042;28;20022;-83
2021/07/19 01:44:06;;;;;;;5.20;3.78;;;24.10;99.90;;;;;;4974279;28;20514;-83
2021/07/19 01:46:32;;;;;;;5.80;3.65;;;24.10;99.90;;;;;;4974815;28;20042;-80
2021/07/19 01:49:00;;;;;;;6.05;3.70;;;24.10;99.90;;;;;;4956265;28;20041;-83
2021/07/19 01:51:27;;;;;;;8.45;4.25;;;24.00;99.90;;;;;;4973140;28;20038;-83
2021/07/19 01:53:56;;;;;;;7.25;4.35;;;24.00;99.90;;;;;;4963538;28;20495;-85
2021/07/19 01:56:22;;;;;;;5.15;3.75;;;24.00;99.90;;;;;;4971708;28;20022;-81
2021/07/19 01:58:48;;;;;;;6.22;3.72;;;24.00;99.90;;;;;;4973084;28;20023;-83
2021/07/19 02:01:16;;;;;;;6.75;3.78;;;24.00;99.90;;;;;;4973062;28;20464;-84
2021/07/19 02:03:41;;;;;;;5.85;3.75;;;24.00;99.90;;;;;;4969238;28;20027;-84
2021/07/19 02:06:08;;;;;;;4.13;3.72;;;23.90;99.90;;;;;;4972587;28;20027;-79
2021/07/19 02:08:36;;;;;;;10.05;4.32;;;23.90;99.90;;;;;;4973536;28;20019;-79
2021/07/19 02:11:07;;;;;;;6.32;4.07;;;23.90;99.90;;;;;;4971699;28;20027;-82
2021/07/19 02:13:36;;;;;;;6.30;3.83;;;23.90;99.90;;;;;;4974696;28;20015;-82
2021/07/19 02:16:02;;;;;;;6.22;4.20;;;23.80;99.90;;;;;;4973120;28;20105;-84
2021/07/19 02:18:32;;;;;;;9.93;4.38;;;23.80;99.90;;;;;;4957520;28;20046;-83
2021/07/19 02:21:04;;;;;;;6.18;3.80;;;23.80;99.90;;;;;;4973024;28;20073;-82
2021/07/19 02:23:34;;;;;;;7.80;4.38;;;23.80;99.90;;;;;;4952494;28;20054;-83
2021/07/19 02:26:01;;;;;;;8.27;3.67;;;23.80;99.90;;;;;;4957206;28;20102;-84
2021/07/19 02:28:33;;;;;;;4.18;3.53;;;23.80;99.90;;;;;;4971907;28;20031;-85
2021/07/19 02:31:03;;;;;;;6.38;3.75;;;23.80;99.90;;;;;;4971484;28;20023;-84
2021/07/19 02:33:30;;;;;;;8.90;4.00;;;23.80;99.90;;;;;;4967577;28;20037;-83
2021/07/19 02:35:56;;;;;;;7.40;4.22;;;23.80;99.90;;;;;;4971694;28;20022;-84
2021/07/19 02:38:23;;;;;;;5.63;3.60;;;23.70;99.90;;;;;;4963043;28;20487;-85
2021/07/19 02:40:51;;;;;;;6.07;3.72;;;23.70;99.90;;;;;;4969815;28;20404;-84
2021/07/19 02:43:20;;;;;;;8.60;3.95;;;23.70;99.90;;;;;;4974369;28;20045;-84
2021/07/19 02:45:48;;;;;;;8.05;4.30;;;23.70;99.90;;;;;;4970751;28;20043;-83
2021/07/19 02:48:25;;;;;;;6.05;3.90;;;23.70;99.90;;;;;;4974892;28;20030;-84
2021/07/19 02:51:03;;;;;;;6.22;3.95;;;23.70;99.90;;;;;;4969245;28;20023;-84
2021/07/19 02:53:30;;;;;;;7.68;4.30;;;23.70;99.90;;;;;;4974845;28;20422;-82
2021/07/19 02:56:00;;;;;;;11.13;3.78;;;23.70;99.90;;;;;;4966285;28;20018;-85
2021/07/19 02:58:27;;;;;;;8.00;4.10;;;23.70;99.90;;;;;;4974816;28;20050;-85
2021/07/19 03:00:53;;;;;;;6.25;3.72;;;23.70;99.90;;;;;;4966254;28;20480;-81
2021/07/19 03:03:24;;;;;;;6.93;3.80;;;23.60;99.90;;;;;;4972375;28;20123;-84
2021/07/19 03:06:02;;;;;;;5.05;4.03;;;23.60;99.90;;;;;;4970404;28;20386;-85
2021/07/19 03:08:33;;;;;;;15.27;4.15;;;23.60;99.90;;;;;;4959015;28;20575;-80
2021/07/19 03:11:04;;;;;;;9.43;4.78;;;23.50;99.90;;;;;;4962114;28;20035;-83
2021/07/19 03:13:30;;;;;;;4.78;3.83;;;23.50;99.90;;;;;;4971968;28;20027;-81
2021/07/19 03:15:58;;;;;;;7.57;3.65;;;23.40;99.90;;;;;;4963290;28;20420;-84
2021/07/19 03:18:25;;;;;;;6.20;3.85;;;23.50;99.90;;;;;;4972056;28;20026;-83
2021/07/19 03:20:53;;;;;;;7.13;3.92;;;23.40;99.90;;;;;;4964889;28;20030;-85
2021/07/19 03:23:22;;;;;;;7.43;3.50;;;23.40;99.90;;;;;;4960835;28;20031;-84
2021/07/19 03:25:48;;;;;;;4.20;3.72;;;23.30;99.90;;;;;;4974298;28;20038;-84
2021/07/19 03:28:17;;;;;;;6.63;3.83;;;23.30;99.90;;;;;;4973037;28;20035;-84
2021/07/19 03:30:43;;;;;;;5.25;3.90;;;23.30;99.90;;;;;;4973843;28;20023;-84
2021/07/19 03:33:10;;;;;;;5.30;3.97;;;23.30;99.90;;;;;;4973150;28;20042;-83
2021/07/19 03:35:36;;;;;;;10.40;4.00;;;23.30;99.90;;;;;;4972418;28;20066;-83
2021/07/19 03:38:03;;;;;;;7.22;3.55;;;23.30;99.90;;;;;;4963158;28;20022;-85
2021/07/19 03:40:30;;;;;;;6.47;3.80;;;23.30;99.90;;;;;;4969185;28;20030;-84
2021/07/19 03:42:59;;;;;;;7.50;3.88;;;23.30;99.90;;;;;;4972695;28;20034;-85
2021/07/19 03:45:27;;;;;;;7.22;4.18;;;23.30;99.90;;;;;;4958893;28;20053;-84
2021/07/19 03:47:56;;;;;;;8.35;4.13;;;23.30;99.90;;;;;;4972848;28;20432;-83
2021/07/19 03:50:22;;;;;;;10.85;4.50;;;23.40;99.90;;;;;;4969772;28;20555;-85
2021/07/19 03:52:50;;;;;;;7.20;3.72;;;23.40;99.90;;;;;;4973923;28;20476;-84
2021/07/19 03:55:16;;;;;;;6.32;4.03;;;23.40;99.90;;;;;;4973421;28;20037;-79
2021/07/19 03:57:44;;;;;;;7.47;4.28;;;23.40;99.90;;;;;;4972156;28;20046;-84
2021/07/19 04:00:15;;;;;;;6.47;3.95;;;23.50;99.90;;;;;;4973525;28;20039;-84
2021/07/19 04:02:44;;;;;;;;;;;23.50;99.90;;;;;;4973849;28;20356;-85
2021/07/19 04:05:15;;;;;;;4.72;4.03;;;23.50;99.90;;;;;;4967812;28;19914;-84
2021/07/19 04:07:44;;;;;;;10.32;4.07;;;23.50;99.90;;;;;;4969518;28;20037;-83
2021/07/19 04:10:12;;;;;;;7.28;3.72;;;23.50;99.90;;;;;;4972860;28;20019;-81
2021/07/19 04:12:43;;;;;;;11.48;4.38;;;23.50;99.90;;;;;;4969426;28;20023;-84
2021/07/19 04:15:09;;;;;;;10.88;4.30;;;23.60;99.90;;;;;;4967215;28;20023;-83
2021/07/19 04:17:35;;;;;;;11.18;4.10;;;23.60;99.90;;;;;;4973090;28;20023;-84
2021/07/19 04:20:04;;;;;;;6.93;3.97;;;23.60;99.90;;;;;;4970862;28;20157;-79
2021/07/19 04:22:31;;;;;;;12.10;4.50;;;23.60;99.90;;;;;;4962776;28;20019;-80
2021/07/19 04:24:57;;;;;;;9.13;4.65;;;23.70;99.90;;;;;;4953013;28;20028;-83
2021/07/19 04:27:23;;;;;;;11.82;3.78;;;23.70;99.90;;;;;;4970103;28;20035;-85
2021/07/19 04:29:50;;;;;;;5.05;3.75;;;23.70;99.90;;;;;;4958390;28;20031;-83
2021/07/19 04:32:19;;;;;;;11.20;4.95;;;23.90;99.90;;;;;;4958671;28;20023;-85
2021/07/19 04:34:45;;;;;;;8.55;3.78;;;24.70;99.90;;;;;;4972850;28;20034;-86
2021/07/19 04:37:11;;;;;;;7.53;3.70;;;24.90;99.90;;;;;;4971057;28;20023;-86
2021/07/19 04:39:38;;;;;;;5.32;3.78;;;24.90;99.90;;;;;;4971595;28;20082;-85
2021/07/19 04:42:05;;;;;;;5.28;3.40;;;24.90;99.90;;;;;;4962451;28;20111;-86
2021/07/19 04:44:31;;;;;;;10.23;4.00;;;25.50;99.90;;;;;;4963991;28;20051;-84
2021/07/19 04:46:57;;;;;;;5.90;3.63;;;26.60;99.90;;;;;;4950284;28;20497;-80
2021/07/19 04:49:23;;;;;;;7.80;3.60;;;26.80;99.90;;;;;;4963011;28;20035;-84
2021/07/19 04:51:49;;;;;;;10.68;3.80;;;26.40;99.90;;;;;;4947923;28;20055;-86
2021/07/19 04:54:20;;;;;;;5.97;3.75;;;25.90;99.90;;;;;;4953885;28;20080;-85
2021/07/19 04:56:49;;;;;;;9.15;3.72;;;25.60;99.90;;;;;;4959898;28;20035;-85
2021/07/19 04:59:17;;;;;;;8.02;3.58;;;25.30;99.90;;;;;;4956204;28;20077;-86
2021/07/19 05:01:44;;;;;;;9.65;3.83;;;25.00;99.90;;;;;;4954426;28;20049;-85
2021/07/19 05:04:13;;;;;;;5.75;3.92;;;24.90;99.90;;;;;;4954747;28;20035;-86
2021/07/19 05:06:43;;;;;;;10.10;4.03;;;24.70;99.90;;;;;;4973065;28;20486;-85
2021/07/19 05:09:12;;;;;;;6.50;4.00;;;24.60;99.90;;;;;;4971884;28;20042;-85
2021/07/19 05:11:42;;;;;;;5.68;3.72;;;24.60;99.90;;;;;;4970975;28;20047;-84
2021/07/19 05:14:08;;;;;;;8.55;3.65;;;24.50;99.90;;;;;;4973730;28;20066;-77
2021/07/19 05:16:34;;;;;;;10.95;3.88;;;24.60;99.90;;;;;;4963348;28;20388;-85
2021/07/19 05:19:02;;;;;;;8.68;3.90;;;24.80;99.90;;;;;;4971544;28;20082;-84
2021/07/19 05:21:33;;;;;;;7.38;3.38;;;25.10;99.90;;;;;;4971884;28;20058;-85
2021/07/19 05:24:01;;;;;;;12.23;4.10;;;25.60;99.90;;;;;;4972172;28;20061;-81
2021/07/19 05:26:30;;;;;;;6.40;3.75;;;26.50;99.90;;;;;;4967724;28;20047;-85
2021/07/19 05:29:00;;;;;;;4.50;3.42;;;26.70;99.90;;;;;;4976077;28;20035;-83
2021/07/19 05:31:26;;;;;;;5.65;3.42;;;27.40;99.90;;;;;;4964294;28;20030;-89
2021/07/19 05:33:52;;;;;;;4.95;3.50;;;27.50;99.90;;;;;;4975796;28;20030;-91
2021/07/19 05:36:18;;;;;;;8.07;3.20;;;28.50;99.90;;;;;;4974217;28;20030;-92
2021/07/19 05:38:44;;;;;;;12.32;3.60;;;29.10;99.90;;;;;;4975972;28;20042;-79
2021/07/19 05:41:11;;;;;;;11.30;3.63;;;30.50;99.90;;;;;;4972681;28;20028;-88
2021/07/19 05:43:37;;;;;;;10.65;3.38;;;32.30;99.90;;;;;;4972126;28;20022;-93
2021/07/19 05:46:04;;;;;;;7.60;2.80;;;33.50;99.90;;;;;;4970973;28;20481;-92
2021/07/19 05:48:30;;;;;;;7.68;3.10;;;32.60;99.90;;;;;;4975332;28;20022;-92
2021/07/19 05:50:57;;;;;;;14.27;3.30;;;31.90;99.90;;;;;;4973785;28;20089;-93
2021/07/19 05:53:23;;;;;;;6.70;3.70;;;33.10;99.90;;;;;;4977362;28;20070;-93
2021/07/19 05:55:49;;;;;;;7.85;3.55;;;35.40;99.30;;;;;;4973013;28;20063;-90
2021/07/19 05:58:15;;;;;;;5.35;3.10;;;37.40;96.30;;;;;;4968550;28;20480;-90
2021/07/19 06:00:42;;;;;;;6.85;3.63;;;38.80;93.60;;;;;;4972586;28;20042;-87
2021/07/19 06:03:08;;;;;;;6.43;3.08;;;39.50;91.00;;;;;;4972548;28;20042;-90
2021/07/19 06:05:33;;;;;;;8.88;2.85;;;40.50;88.60;;;;;;4968635;28;20031;-91
2021/07/19 06:07:59;;;;;;;6.90;2.85;;;40.20;86.90;;;;;;4979444;28;20023;-92
2021/07/19 06:10:26;;;;;;;9.55;3.00;;;39.90;86.10;;;;;;4968949;28;20039;-90
2021/07/19 06:12:52;;;;;;;4.80;3.22;;;39.40;85.50;;;;;;4972608;28;20024;-90
2021/07/19 06:15:20;;;;;;;17.88;3.30;;;37.00;87.70;;;;;;4966881;28;20034;-90
2021/07/19 06:17:46;;;;;;;23.38;3.90;;;35.10;90.50;;;;;;4959575;28;20035;-87
2021/07/19 06:20:13;;;;;;;15.45;3.90;;;34.20;91.90;;;;;;4974558;28;20498;-89
2021/07/19 06:22:40;;;;;;;5.93;3.08;;;35.80;91.10;;;;;;4976396;28;20045;-89
2021/07/19 06:25:07;;;;;;;7.38;2.55;;;37.90;88.20;;;;;;4973139;28;20027;-81
2021/07/19 06:27:33;;;;;;;9.20;2.80;;;39.80;83.50;;;;;;4968304;28;20376;-90
2021/07/19 06:29:59;;;;;;;6.72;2.50;;;41.10;81.00;;;;;;4976784;28;20027;-86
2021/07/19 06:32:25;;;;;;;8.43;2.78;;;42.40;77.30;;;;;;4974229;28;20456;-86
2021/07/19 06:34:50;;;;;;;5.85;2.58;;;43.10;74.90;;;;;;4964215;28;20396;-91
2021/07/19 06:37:16;;;;;;;5.53;2.53;;;43.00;73.50;;;;;;4973234;28;20033;-91
2021/07/19 06:39:42;;;;;;;12.55;2.70;;;42.40;72.60;;;;;;4966321;28;20460;-91
2021/07/19 06:42:08;;;;;;;8.77;2.85;;;42.00;72.40;;;;;;4972792;28;20918;-88
2021/07/19 06:44:33;;;;;;;10.27;3.33;;;41.90;73.20;;;;;;4937956;28;1126013;-88
2021/07/19 06:46:59;;;;;;;6.60;3.17;;;42.70;72.30;;;;;;4988890;28;20054;-78
2021/07/19 06:49:26;;;;;;;7.00;2.78;;;43.10;70.50;;;;;;4985228;28;20038;-89
2021/07/19 06:51:52;;;;;;;11.23;2.72;;;43.40;69.80;;;;;;4976468;28;20026;-90
2021/07/19 06:54:20;;;;;;;13.55;2.63;;;44.30;68.40;;;;;;4973660;28;20030;-91
2021/07/19 06:56:48;;;;;;;13.85;3.13;;;44.30;67.10;;;;;;4968210;28;20033;-92
2021/07/19 06:59:20;;;;;;;8.50;2.88;;;44.40;67.00;;;;;;4974525;28;20062;-92
2021/07/19 07:01:46;;;;;;;10.93;2.53;;;44.60;64.50;;;;;;4970439;28;20024;-85
2021/07/19 07:04:12;;;;;;;7.00;2.92;;;44.60;64.50;;;;;;4969024;28;20490;-75
2021/07/19 07:06:37;;;;;;;14.30;3.70;;;44.50;65.40;;;;;;4971753;28;20484;-83
2021/07/19 07:09:03;;;;;;;13.57;3.20;;;44.40;65.00;;;;;;4973741;28;20475;-85
2021/07/19 07:11:30;;;;;;;11.52;3.33;;;43.50;65.50;;;;;;4973120;28;20043;-82
2021/07/19 07:13:57;;;;;;;13.80;3.10;;;42.00;67.50;;;;;;4965395;28;20506;-79
2021/07/19 07:16:23;;;;;;;16.17;3.58;;;40.90;69.80;;;;;;4972211;28;20450;-81
2021/07/19 07:18:48;;;;;;;15.23;4.10;;;39.50;70.30;;;;;;4964907;28;20057;-82
2021/07/19 07:21:14;;;;;;;14.02;4.20;;;37.60;71.20;;;;;;4971243;28;20046;-80
2021/07/19 07:23:40;;;;;;;12.18;4.10;;;35.90;76.00;;;;;;4973065;28;20092;-81
2021/07/19 07:26:06;;;;;;;7.50;3.42;;;35.40;76.30;;;;;;4971367;28;20017;-81
2021/07/19 07:28:32;;;;;;;20.52;4.45;;;35.10;77.60;;;;;;4972765;28;20126;-80
2021/07/19 07:30:57;;;;;;;10.65;4.10;;;35.00;79.10;;;;;;4970645;28;20027;-77
2021/07/19 07:33:23;;;;;;;8.57;3.88;;;34.90;79.50;;;;;;4970600;28;20484;-77
2021/07/19 07:35:50;;;;;;;10.20;3.55;;;35.00;78.80;;;;;;4967613;28;20030;-84
2021/07/19 07:38:16;;;;;;;8.77;3.83;;;34.90;79.00;;;;;;4970088;28;20161;-82
2021/07/19 07:40:42;;;;;;;11.00;4.45;;;35.10;78.80;;;;;;4965335;28;20106;-82
2021/07/19 07:43:08;;;;;;;9.70;4.10;;;35.20;78.60;;;;;;4965427;28;20019;-80
2021/07/19 07:45:34;;;;;;;10.30;4.05;;;35.00;78.60;;;;;;4967811;28;20118;-77
2021/07/19 07:48:00;;;;;;;10.48;4.20;;;34.40;79.20;;;;;;4972902;28;20023;-81
2021/07/19 07:50:26;;;;;;;10.77;4.22;;;34.20;80.20;;;;;;4964605;28;20031;-81
2021/07/19 07:52:52;;;;;;;11.00;4.47;;;34.00;81.20;;;;;;4966474;28;20529;-80
2021/07/19 07:55:17;;;;;;;14.68;5.05;;;34.10;80.40;;;;;;4972974;28;20089;-86
2021/07/19 07:57:43;;;;;;;7.13;4.13;;;34.30;80.30;;;;;;4955071;28;20102;-83
2021/07/19 08:00:15;;;;;;;10.55;4.00;;;34.40;80.30;;;;;;4971941;28;20030;-83
2021/07/19 08:02:42;;;;;;;10.43;4.40;;;34.50;80.60;;;;;;4972466;28;20086;-84
2021/07/19 08:05:11;;;;;;;11.52;4.38;;;34.50;78.30;;;;;;4965910;28;20026;-82
2021/07/19 08:07:37;;;;;;;16.20;4.40;;;34.40;80.30;;;;;;4962155;28;20380;-83
2021/07/19 08:10:05;;;;;;;17.42;4.28;;;34.00;79.90;;;;;;4963585;28;20022;-79
2021/07/19 08:12:31;;;;;;;14.02;5.28;;;33.70;80.30;;;;;;4964761;28;20023;-78
2021/07/19 08:14:58;;;;;;;11.68;4.80;;;33.40;82.20;;;;;;4966926;28;20027;-78
2021/07/19 08:17:25;;;;;;;18.92;4.97;;;33.40;82.40;;;;;;4969258;28;20096;-78
2021/07/19 08:19:50;;;;;;;14.20;5.22;;;33.30;82.40;;;;;;4972350;28;20598;-75
2021/07/19 08:22:21;;;;;;;8.52;4.68;;;33.10;83.40;;;;;;4968284;28;20113;-76
2021/07/19 08:24:47;;;;;;;;;;;33.20;83.60;;;;;;4969921;28;20031;-75
2021/07/19 08:27:13;;;;;;;8.40;4.63;;;32.90;83.20;;;;;;4964495;28;19913;-81
2021/07/19 08:29:38;;;;;;;11.95;4.50;;;32.50;84.70;;;;;;4963849;28;20169;-80
2021/07/19 08:32:07;;;;;;;20.30;5.72;;;32.50;85.20;;;;;;4970006;28;20046;-81
2021/07/19 08:34:33;;;;;;;15.52;5.18;;;32.60;85.10;;;;;;4970887;28;20052;-75
2021/07/19 08:36:59;;;;;;;7.85;4.90;;;32.80;84.50;;;;;;4970791;28;20030;-75
2021/07/19 08:39:25;;;;;;;11.77;4.80;;;33.00;84.10;;;;;;4970839;28;20129;-75
2021/07/19 08:41:52;;;;;;;16.65;4.95;;;32.90;83.10;;;;;;4972494;28;20559;-74
2021/07/19 08:44:18;;;;;;;19.30;5.43;;;33.00;84.00;;;;;;4965181;28;20082;-76
2021/07/19 08:46:43;;;;;;;12.95;5.07;;;33.10;83.00;;;;;;4956684;28;20035;-75
2021/07/19 08:49:09;;;;;;;22.60;4.97;;;33.20;83.00;;;;;;4970809;28;20030;-75
2021/07/19 08:51:40;;;;;;;13.10;5.20;;;33.20;82.10;;;;;;4970852;28;20019;-75
2021/07/19 08:54:09;;;;;;;23.70;5.20;;;32.90;82.10;;;;;;4963096;28;20105;-78
2021/07/19 08:56:35;;;;;;;13.32;5.15;;;32.80;83.20;;;;;;4960935;28;20118;-77
2021/07/19 08:59:04;;;;;;;12.30;5.32;;;32.90;83.00;;;;;;4968339;28;20154;-79
2021/07/19 09:01:32;;;;;;;16.67;5.00;;;32.80;81.80;;;;;;4966607;28;20468;-76
2021/07/19 09:03:58;;;;;;;13.10;5.40;;;33.00;83.00;;;;;;4963064;28;20026;-76
2021/07/19 09:06:26;;;;;;;13.35;5.50;;;33.20;83.30;;;;;;4974308;28;20030;-79
2021/07/19 09:08:53;;;;;;;14.02;5.60;;;33.30;79.70;;;;;;4966759;28;20042;-77
2021/07/19 09:11:21;;;;;;;10.07;5.57;;;33.20;78.70;;;;;;4960744;28;20050;-75
2021/07/19 09:14:03;;;;;;;16.85;5.88;;;33.30;77.50;;;;;;4959260;28;20476;-77
2021/07/19 09:16:58;;;;;;;13.07;5.63;;;33.20;77.10;;;;;;4960491;28;20058;-87
2021/07/19 09:19:26;;;;;;;31.13;6.40;;;33.30;76.60;;;;;;4939591;28;20047;-84
2021/07/19 09:22:00;;;;;;;18.98;6.00;;;33.50;77.00;;;;;;4959589;28;20094;-80
2021/07/19 09:24:35;;;;;;;12.18;5.22;;;33.50;78.90;;;;;;4959559;28;20027;-85
2021/07/19 09:27:01;;;;;;;20.02;5.97;;;33.60;78.40;;;;;;4957819;28;20384;-82
2021/07/19 09:29:26;;;;;;;16.55;5.70;;;33.70;76.80;;;;;;4957412;28;20034;-84
2021/07/19 09:31:54;;;;;;;16.02;5.30;;;33.60;77.30;;;;;;4963243;28;20042;-84
2021/07/19 09:34:23;;;;;;;19.73;6.18;;;33.60;76.90;;;;;;4971995;28;20062;-82
2021/07/19 09:36:56;;;;;;;23.45;5.88;;;33.70;76.60;;;;;;4972063;28;20019;-81
2021/07/19 09:39:23;;;;;;;14.70;5.50;;;33.70;76.70;;;;;;4968536;28;20495;-80
2021/07/19 09:42:02;;;;;;;17.85;6.68;;;33.70;76.10;;;;;;4939386;28;20495;-88
2021/07/19 09:44:28;;;;;;;16.23;5.78;;;33.70;75.50;;;;;;4969782;28;20048;-86
2021/07/19 09:46:59;;;;;;;11.65;5.93;;;33.70;75.80;;;;;;4961983;28;20099;-85
2021/07/19 09:49:29;;;;;;;17.15;6.40;;;33.60;75.60;;;;;;4970706;28;20560;-81
2021/07/19 09:51:59;;;;;;;13.90;6.10;;;33.50;75.10;;;;;;4973177;28;20142;-84
2021/07/19 09:54:35;;;;;;;20.95;6.00;;;33.30;75.60;;;;;;4972772;28;20046;-78
2021/07/19 09:57:04;;;;;;;32.42;6.88;;;33.20;75.30;;;;;;4972455;28;20030;-82
2021/07/19 09:59:31;;;;;;;14.73;6.30;;;33.20;76.60;;;;;;4965736;28;20035;-82
2021/07/19 10:01:56;;;;;;;21.38;6.25;;;33.10;75.90;;;;;;4970784;28;20027;-84
2021/07/19 10:04:22;;;;;;;14.18;6.18;;;33.00;75.60;;;;;;4961242;28;20102;-82
2021/07/19 10:06:54;;;;;;;17.75;6.05;;;33.10;76.10;;;;;;4971436;28;20101;-80
2021/07/19 10:09:21;;;;;;;16.85;6.30;;;33.10;76.10;;;;;;4973312;28;20392;-78
2021/07/19 10:11:50;;;;;;;19.55;6.75;;;33.10;75.90;;;;;;4971637;28;20108;-83
2021/07/19 10:14:31;;;;;;;20.00;6.13;;;33.20;75.40;;;;;;4973385;28;20045;-87
2021/07/19 10:16:58;;;;;;;19.95;6.60;;;33.10;75.90;;;;;;4968032;28;20019;-86
2021/07/19 10:19:25;;;;;;;22.55;6.68;;;33.10;75.90;;;;;;4971296;28;20788;-81
2021/07/19 10:21:51;;;;;;;26.13;7.38;;;33.00;76.50;;;;;;4970693;28;20058;-83
2021/07/19 10:24:17;;;;;;;22.60;6.50;;;33.00;75.80;;;;;;4973228;28;20065;-79
2021/07/19 10:26:45;;;;;;;34.00;7.20;;;33.10;75.60;;;;;;4973531;28;20046;-82
2021/07/19 10:29:11;;;;;;;17.83;6.80;;;33.10;75.30;;;;;;4971428;28;20098;-77
2021/07/19 10:31:37;;;;;;;18.63;6.95;;;32.90;75.30;;;;;;4972356;28;20379;-82
2021/07/19 10:34:04;;;;;;;23.45;6.85;;;32.80;76.30;;;;;;4972333;28;20027;-77
2021/07/19 10:36:42;;;;;;;24.52;7.35;;;32.90;76.30;;;;;;4972831;28;20126;-81
2021/07/19 10:39:12;;;;;;;20.40;6.35;;;33.00;75.70;;;;;;4969262;28;20039;-81
2021/07/19 10:41:39;;;;;;;21.63;6.32;;;32.80;75.40;;;;;;4959936;28;20078;-83
2021/07/19 10:44:09;;;;;;;24.63;7.20;;;32.70;76.00;;;;;;4968107;28;20499;-77
2021/07/19 10:46:36;;;;;;;17.23;6.97;;;32.80;76.50;;;;;;4973493;28;20096;-80
2021/07/19 10:49:12;;;;;;;18.02;7.28;;;32.80;76.00;;;;;;4972225;28;20274;-78
2021/07/19 10:51:45;;;;;;;18.63;6.75;;;32.70;76.40;;;;;;4956301;28;20015;-77
2021/07/19 10:54:23;;;;;;;27.10;7.18;;;32.80;75.90;;;;;;4962089;28;20035;-83
2021/07/19 10:56:54;;;;;;;15.93;6.45;;;32.80;75.50;;;;;;4969789;28;20023;-86
2021/07/19 10:59:30;;;;;;;20.38;7.07;;;32.70;76.40;;;;;;4967933;28;20039;-79
2021/07/19 11:01:58;;;;;;;21.67;6.55;;;32.80;76.80;;;;;;4973338;28;20113;-83
2021/07/19 11:04:25;;;;;;;18.40;6.63;;;32.70;76.50;;;;;;4973475;28;20468;-80
2021/07/19 11:06:58;;;;;;;23.23;7.28;;;32.80;76.20;;;;;;4973421;28;20026;-79
2021/07/19 11:09:37;;;;;;;24.20;6.93;;;32.90;76.80;;;;;;4973009;28;20100;-78
2021/07/19 11:12:11;;;;;;;32.03;8.13;;;32.90;74.70;;;;;;4972792;28;20049;-81
2021/07/19 11:14:52;;;;;;;23.90;6.70;;;32.80;76.00;;;;;;4973102;28;20042;-79
2021/07/19 11:17:21;;;;;;;28.00;7.10;;;32.80;76.70;;;;;;4972503;28;20046;-79
2021/07/19 11:19:49;;;;;;;21.63;6.32;;;32.80;78.00;;;;;;4971792;28;20101;-79
2021/07/19 11:22:27;;;;;;;40.92;7.45;;;32.70;79.20;;;;;;4971546;28;20102;-84
2021/07/19 11:25:06;;;;;;;29.13;7.40;;;32.80;79.90;;;;;;4971037;28;20039;-84
2021/07/19 11:27:38;;;;;;;21.90;7.20;;;32.80;78.30;;;;;;4971802;28;20054;-79
2021/07/19 11:30:07;;;;;;;43.08;7.60;;;32.70;79.00;;;;;;4969418;28;20135;-84
2021/07/19 11:32:34;;;;;;;19.77;6.78;;;32.80;77.50;;;;;;4970307;28;20028;-83
2021/07/19 11:35:13;;;;;;;24.65;6.88;;;32.90;78.60;;;;;;4972139;28;20045;-77
2021/07/19 11:37:44;;;;;;;19.55;7.25;;;33.10;78.30;;;;;;4955125;28;20111;-82
2021/07/19 11:40:11;;;;;;;21.58;6.93;;;33.00;76.60;;;;;;4971982;28;20540;-83
2021/07/19 11:42:43;;;;;;;35.22;7.80;;;33.00;76.40;;;;;;4961936;28;20472;-83
2021/07/19 11:45:13;;;;;;;28.33;6.85;;;32.80;77.90;;;;;;4969501;28;20043;-84
2021/07/19 11:47:48;;;;;;;17.20;6.40;;;32.70;77.20;;;;;;4969614;28;20058;-83
2021/07/19 11:50:17;;;;;;;29.85;6.60;;;32.70;76.40;;;;;;4967446;28;20066;-81
2021/07/19 11:52:45;;;;;;;29.85;8.18;;;32.70;76.50;;;;;;4972241;28;20484;-86
2021/07/19 11:55:12;;;;;;;20.58;7.15;;;32.80;76.50;;;;;;4969057;28;20019;-79
2021/07/19 11:57:48;;;;;;;25.90;7.15;;;32.80;77.40;;;;;;4972029;28;20031;-83
2021/07/19 12:00:32;;;;;;;29.00;7.03;;;32.90;77.10;;;;;;4972222;28;20073;-82
2021/07/19 12:03:01;;;;;;;22.75;6.32;;;32.90;77.00;;;;;;4972074;28;20029;-87
2021/07/19 12:05:27;;;;;;;22.00;8.40;;;32.90;76.20;;;;;;4972004;28;20038;-82
2021/07/19 12:08:07;;;;;;;30.08;7.22;;;32.80;76.90;;;;;;4969690;28;20023;-82
2021/07/19 12:10:36;;;;;;;25.05;6.78;;;32.70;75.60;;;;;;4969752;28;20076;-84
2021/07/19 12:13:16;;;;;;;28.00;7.50;;;32.60;75.70;;;;;;4971637;28;20015;-84
2021/07/19 12:15:52;;;;;;;34.20;7.47;;;32.60;76.90;;;;;;4966217;28;20077;-76
2021/07/19 12:18:46;;;;;;;28.60;6.78;;;32.60;75.30;;;;;;4966189;28;20070;-85
2021/07/19 12:21:14;;;;;;;23.10;6.97;;;32.50;76.20;;;;;;4968711;28;20128;-83
2021/07/19 12:23:41;;;;;;;26.70;6.88;;;32.40;77.20;;;;;;4970655;28;20034;-83
2021/07/19 12:26:07;;;;;;;19.83;7.50;;;32.40;77.10;;;;;;4970287;28;20431;-85
2021/07/19 12:28:33;;;;;;;31.75;8.45;;;32.40;77.00;;;;;;4970173;28;20031;-78
2021/07/19 12:31:33;;;;;;;38.22;8.20;;;32.50;76.50;;;;;;4970780;28;20030;-83
2021/07/19 12:34:09;;;;;;;23.13;7.05;;;32.50;77.20;;;;;;4972171;28;20499;-83
2021/07/19 12:36:36;;;;;;;24.73;7.18;;;32.60;77.10;;;;;;4972795;28;20031;-83
2021/07/19 12:39:08;;;;;;;28.55;7.97;;;32.70;78.50;;;;;;4974588;28;20026;-83
2021/07/19 12:41:34;;;;;;;32.20;6.93;;;32.50;77.20;;;;;;4973399;28;20027;-78
2021/07/19 12:44:07;;;;;;;19.92;7.00;;;32.40;77.30;;;;;;4965686;28;20039;-79
2021/07/19 12:46:44;;;;;;;22.98;6.88;;;32.20;77.50;;;;;;4970610;28;20472;-79
2021/07/19 12:49:11;;;;;;;25.98;7.28;;;32.10;77.80;;;;;;4974449;28;20026;-83